Knittelfeld, Austria
Current Conditions -  °F | °C
As of 10:50 PM on Friday 19 Dec 2014 (Local Time) from LOXZ Reporting Station
Broken Clouds Broken Clouds  
Wind Chill: 36°   Ceiling: 13000
Heat Index: 36°   Visibility: 5mi
Dew Point: 34°   Wind: 2mph
Humidity: 93%   Direction: NA
Pressure: 30.03"   Gusts: NA
Location:  47.22°N, 14.83°E
Report Text: LOXZ 192050Z VRB02KT 8000 BKN130AC 02/01 Q1017 RMK BKN
Loading
Personal Weather Stations






























Interactive Weather Map New forecast layout! Learn more

10-Day Weather Forecast

Advertisements
Track Severe Weather on mobile